Date,TemperatureHighF,TemperatureAvgF,TemperatureLowF,DewpointHighF,DewpointAvgF,DewpointLowF,HumidityHigh,HumidityAvg,HumidityLow,PressureMaxIn,PressureMinIn,WindSpeedMaxMPH,WindSpeedAvgMPH,GustSpeedMaxMPH,PrecipitationSumIn
2013-12-1,77,57,44,47,43,39,94,63,29,30.28,30.15,9,0,9,0.00
2013-12-2,65,53,43,52,45,39,97,77,52,30.19,29.94,7,0,10,0.00
2013-12-3,57,49,35,50,41,31,99,78,45,29.95,29.79,16,1,16,0.02
2013-12-4,55,39,30,33,28,22,91,68,29,30.03,29.88,9,0,9,0.00
2013-12-5,54,38,28,32,24,19,79,59,27,30.14,30.01,5,0,7,0.00
2013-12-6,54,41,27,43,30,20,89,67,47,30.17,29.92,12,0,12,0.09
2013-12-7,53,43,31,50,35,26,96,74,39,30.20,29.85,20,1,22,0.35
2013-12-8,47,37,30,31,27,22,88,67,42,30.26,30.15,15,2,15,0.00
2013-12-9,53,40,30,28,23,19,72,52,32,30.35,30.25,14,2,14,0.00
2013-12-10,57,45,35,28,25,22,66,47,27,30.34,30.12,16,3,16,0.00
2013-12-11,63,50,42,31,27,24,53,42,27,30.16,30.08,12,2,19,0.00
2013-12-12,67,47,35,42,33,26,95,61,25,30.20,30.11,12,0,12,0.00
2013-12-13,62,45,32,42,35,29,95,71,31,30.26,30.16,11,0,11,0.00
2013-12-14,66,51,38,38,34,30,77,54,31,30.29,30.21,14,1,17,0.00
2013-12-15,69,56,45,36,34,30,59,44,27,30.27,30.13,16,2,19,0.00
2013-12-16,73,61,53,35,32,28,49,34,21,30.14,30.02,16,2,16,0.00
2013-12-17,72,60,50,44,34,26,70,40,22,30.09,29.95,11,1,14,0.00
2013-12-18,55,52,50,50,46,39,90,79,57,29.95,29.74,11,1,12,0.00
2013-12-19,61,49,38,47,38,29,91,68,40,29.87,29.67,12,0,13,0.00
2013-12-20,62,44,32,36,29,21,82,60,21,29.95,29.85,3,0,7,0.00
2013-12-21,65,46,34,44,34,22,87,62,42,30.02,29.91,6,0,6,0.00
2013-12-22,67,50,38,50,41,34,97,76,39,30.25,30.02,10,0,10,0.00
2013-12-23,72,52,40,47,40,35,96,66,28,30.33,30.24,9,0,10,0.00
2013-12-24,72,58,46,42,38,35,68,51,29,30.26,30.13,11,1,12,0.00
2013-12-25,72,59,47,40,37,34,66,46,29,30.20,30.12,17,2,17,0.00
2013-12-26,74,60,51,40,37,33,58,44,26,30.17,30.07,14,2,14,0.00
2013-12-27,71,58,44,40,34,26,60,42,22,30.14,30.04,14,2,15,0.00
2013-12-28,70,53,40,40,34,28,79,52,26,30.05,29.94,10,1,10,0.00
2013-12-29,70,53,38,31,28,24,66,41,21,30.10,30.00,10,1,13,0.00
2013-12-30,69,50,38,39,31,26,72,49,23,30.18,30.10,8,0,8,0.00
2013-12-31,70,48,36,44,33,26,86,60,23,30.19,30.05,10,0,10,0.00